createdAt,value
2019-03-20T00:01:55.165Z,70.64
2019-03-20T00:04:25.560Z,70.80
2019-03-20T00:06:56.326Z,70.94
2019-03-20T00:09:26.457Z,71.07
2019-03-20T00:11:56.691Z,71.19
2019-03-20T00:14:26.786Z,71.38
2019-03-20T00:16:56.928Z,71.55
2019-03-20T00:19:27.062Z,71.73
2019-03-20T00:21:57.305Z,71.83
2019-03-20T00:24:27.434Z,72.04
2019-03-20T00:26:57.675Z,72.18
2019-03-20T00:29:27.809Z,72.33
2019-03-20T00:31:57.903Z,72.47
2019-03-20T00:34:27.959Z,72.67
2019-03-20T00:36:58.191Z,72.78
2019-03-20T00:39:28.325Z,73.03
2019-03-20T00:41:58.407Z,73.04
2019-03-20T00:44:28.524Z,73.15
2019-03-20T00:46:58.748Z,73.30
2019-03-20T00:49:28.819Z,73.35
2019-03-20T00:51:59.031Z,73.52
2019-03-20T00:54:29.250Z,73.58
2019-03-20T00:56:59.471Z,73.66
2019-03-20T00:59:29.762Z,73.82
2019-03-20T01:02:00.064Z,73.93
2019-03-20T01:04:30.252Z,74.02
2019-03-20T01:07:00.488Z,74.17
2019-03-20T01:09:30.754Z,74.24
2019-03-20T01:12:00.883Z,74.35
2019-03-20T01:14:31.579Z,74.46
2019-03-20T01:17:01.679Z,74.55
2019-03-20T01:19:31.762Z,74.69
2019-03-20T01:22:01.988Z,74.83
2019-03-20T01:24:32.200Z,74.91
2019-03-20T01:27:02.421Z,75.00
2019-03-20T01:29:32.506Z,75.03
2019-03-20T01:32:02.716Z,75.17
2019-03-20T01:34:33.244Z,75.22
2019-03-20T01:37:03.351Z,75.36
2019-03-20T01:39:33.498Z,75.35
2019-03-20T01:42:03.726Z,75.51
2019-03-20T01:44:33.766Z,75.51
2019-03-20T01:47:06.659Z,75.62
2019-03-20T01:49:35.887Z,75.71
2019-03-20T01:52:06.853Z,75.70
2019-03-20T01:54:36.942Z,75.84
2019-03-20T01:57:07.138Z,75.99
2019-03-20T01:59:37.218Z,76.01
2019-03-20T02:02:07.426Z,76.10
2019-03-20T02:04:37.502Z,76.25
2019-03-20T02:07:07.631Z,76.35
2019-03-20T02:09:37.687Z,76.43
2019-03-20T02:12:07.844Z,76.43
2019-03-20T02:14:38.282Z,76.52
2019-03-20T02:17:08.393Z,76.59
2019-03-20T02:19:38.522Z,76.69
2019-03-20T02:22:08.731Z,76.75
2019-03-20T02:24:38.851Z,76.84
2019-03-20T02:27:09.157Z,76.92
2019-03-20T02:29:39.279Z,77.01
2019-03-20T02:32:09.362Z,77.06
2019-03-20T02:34:39.487Z,77.16
2019-03-20T02:37:09.689Z,77.17
2019-03-20T02:39:39.735Z,77.23
2019-03-20T02:42:09.851Z,77.33
2019-03-20T02:44:39.917Z,77.40
2019-03-20T02:47:10.121Z,77.40
2019-03-20T02:49:40.258Z,77.45
2019-03-20T02:52:10.306Z,77.53
2019-03-20T02:54:40.378Z,77.56
2019-03-20T02:57:10.520Z,77.67
2019-03-20T02:59:40.673Z,77.75
2019-03-20T03:02:10.862Z,77.86
2019-03-20T03:04:40.984Z,77.91
2019-03-20T03:07:11.374Z,78.07
2019-03-20T03:09:41.780Z,77.97
2019-03-20T03:12:12.239Z,78.05
2019-03-20T03:14:42.555Z,78.10
2019-03-20T03:17:12.979Z,78.14
2019-03-20T03:19:43.250Z,78.16
2019-03-20T03:22:13.621Z,78.09
2019-03-20T03:24:44.015Z,78.06
2019-03-20T03:27:14.333Z,78.00
2019-03-20T03:29:44.640Z,77.94
2019-03-20T03:32:15.152Z,77.86
2019-03-20T03:34:45.446Z,77.76
2019-03-20T03:37:18.920Z,77.63
2019-03-20T03:39:49.278Z,77.57
2019-03-20T03:42:19.583Z,77.55
2019-03-20T03:44:50.033Z,77.47
2019-03-20T03:47:20.485Z,77.43
2019-03-20T03:49:50.901Z,77.42
2019-03-20T03:52:21.432Z,77.37
2019-03-20T03:54:51.714Z,77.32
2019-03-20T03:57:22.126Z,77.29
2019-03-20T03:59:52.499Z,77.25
2019-03-20T04:02:22.888Z,77.21
2019-03-20T04:04:53.371Z,77.17
2019-03-20T04:07:24.004Z,77.10
2019-03-20T04:09:54.279Z,77.05
2019-03-20T04:12:24.542Z,77.00
2019-03-20T04:14:54.849Z,76.99
2019-03-20T04:17:27.772Z,76.96
2019-03-20T04:19:58.200Z,76.92
2019-03-20T04:22:28.667Z,76.89
2019-03-20T04:24:58.917Z,76.89
2019-03-20T04:27:29.328Z,76.87
2019-03-20T04:29:59.829Z,76.88
2019-03-20T04:32:30.363Z,76.89
2019-03-20T04:35:00.681Z,76.89
2019-03-20T04:37:30.945Z,76.90
2019-03-20T04:40:01.207Z,76.90
2019-03-20T04:42:31.581Z,76.89
2019-03-20T04:45:02.077Z,76.86
2019-03-20T04:47:32.585Z,76.86
2019-03-20T04:50:02.953Z,76.84
2019-03-20T04:52:33.177Z,76.83
2019-03-20T04:55:03.704Z,76.82
2019-03-20T04:57:34.021Z,76.82
2019-03-20T05:00:04.743Z,76.78
2019-03-20T05:02:34.973Z,76.75
2019-03-20T05:05:05.356Z,76.75
2019-03-20T05:07:35.436Z,76.76
2019-03-20T05:10:16.716Z,76.77
2019-03-20T05:12:46.930Z,76.82
2019-03-20T05:15:17.131Z,76.78
2019-03-20T05:17:47.455Z,76.81
2019-03-20T05:20:17.580Z,76.78
2019-03-20T05:22:47.716Z,76.78
2019-03-20T05:25:17.836Z,76.78
2019-03-20T05:27:47.956Z,76.77
2019-03-20T05:30:18.334Z,76.79
2019-03-20T05:32:48.567Z,76.76
2019-03-20T05:35:18.617Z,76.77
2019-03-20T05:37:48.725Z,76.75
2019-03-20T05:40:18.960Z,76.74
2019-03-20T05:42:49.095Z,76.70
2019-03-20T05:45:19.313Z,76.69
2019-03-20T05:47:49.382Z,76.70
2019-03-20T05:50:19.588Z,76.69
2019-03-20T05:52:49.997Z,76.64
2019-03-20T05:55:20.235Z,76.63
2019-03-20T05:57:50.392Z,76.57
2019-03-20T06:00:21.005Z,76.61
2019-03-20T06:02:51.247Z,76.57
2019-03-20T06:05:21.370Z,76.56
2019-03-20T06:07:51.455Z,76.53
2019-03-20T06:10:21.597Z,76.49
2019-03-20T06:12:51.948Z,76.49
2019-03-20T06:15:24.544Z,76.58
2019-03-20T06:17:55.203Z,76.54
2019-03-20T06:20:25.645Z,76.54
2019-03-20T06:22:56.154Z,76.56
2019-03-20T06:25:26.521Z,76.54
2019-03-20T06:27:57.351Z,76.60
2019-03-20T06:30:27.831Z,76.58
2019-03-20T06:32:59.861Z,76.59
2019-03-20T06:35:30.471Z,76.59
2019-03-20T06:38:00.827Z,76.68
2019-03-20T06:40:31.213Z,76.65
2019-03-20T06:43:01.529Z,76.68
2019-03-20T06:45:31.974Z,76.68
2019-03-20T06:48:02.425Z,76.75
2019-03-20T06:50:32.891Z,76.79
2019-03-20T06:53:03.352Z,76.77
2019-03-20T06:55:33.741Z,76.74
2019-03-20T06:58:04.191Z,76.58
2019-03-20T07:01:16.090Z,76.55
2019-03-20T07:04:20.429Z,76.59
2019-03-20T07:07:15.355Z,76.75
2019-03-20T07:10:38.115Z,76.84
2019-03-20T07:13:08.564Z,76.88
2019-03-20T07:15:38.928Z,76.90
2019-03-20T07:18:09.431Z,76.86
2019-03-20T07:20:39.856Z,76.84
2019-03-20T07:23:10.737Z,76.88
2019-03-20T07:25:41.189Z,76.83
2019-03-20T07:28:11.563Z,76.81
2019-03-20T07:30:42.672Z,76.70
2019-03-20T07:33:13.057Z,76.72
2019-03-20T07:35:43.450Z,76.74
2019-03-20T07:38:13.919Z,76.66
2019-03-20T07:40:44.153Z,76.67
2019-03-20T07:43:14.433Z,76.74
2019-03-20T07:45:44.698Z,76.74
2019-03-20T07:48:22.003Z,76.87
2019-03-20T07:50:46.869Z,77.05
2019-03-20T07:53:17.037Z,77.17
2019-03-20T07:55:47.259Z,77.25
2019-03-20T07:58:17.513Z,77.31
2019-03-20T08:00:47.672Z,77.32
2019-03-20T08:03:17.958Z,77.38
2019-03-20T08:05:48.178Z,77.36
2019-03-20T08:08:18.532Z,77.40
2019-03-20T08:10:48.707Z,77.39
2019-03-20T08:13:19.090Z,77.36
2019-03-20T08:15:49.468Z,77.37
2019-03-20T08:18:19.594Z,77.21
2019-03-20T08:20:49.751Z,77.01
2019-03-20T08:23:20.040Z,76.92
2019-03-20T08:25:50.147Z,76.83
2019-03-20T08:28:20.299Z,76.82
2019-03-20T08:30:50.378Z,76.90
2019-03-20T08:33:20.872Z,76.97
2019-03-20T08:35:50.942Z,77.04
2019-03-20T08:38:25.460Z,76.93
2019-03-20T08:40:55.717Z,76.82
2019-03-20T08:43:25.904Z,76.81
2019-03-20T08:45:56.162Z,76.74
2019-03-20T08:48:26.457Z,76.67
2019-03-20T08:50:56.739Z,76.67
2019-03-20T08:53:26.867Z,76.65
2019-03-20T08:55:57.205Z,76.67
2019-03-20T08:58:27.370Z,76.70
2019-03-20T09:00:57.633Z,76.67
2019-03-20T09:03:27.782Z,76.60
2019-03-20T09:05:57.977Z,76.55
2019-03-20T09:08:29.801Z,76.49
2019-03-20T09:11:00.201Z,76.42
2019-03-20T09:13:30.368Z,76.35
2019-03-20T09:16:00.435Z,76.35
2019-03-20T09:18:30.606Z,76.29
2019-03-20T09:21:00.792Z,76.21
2019-03-20T09:23:31.024Z,76.17
2019-03-20T09:26:01.129Z,76.19
2019-03-20T09:28:31.409Z,76.16
2019-03-20T09:31:01.666Z,76.12
2019-03-20T09:33:31.847Z,76.10
2019-03-20T09:36:02.043Z,76.06
2019-03-20T09:38:42.738Z,75.98
2019-03-20T09:41:04.304Z,75.91
2019-03-20T09:43:34.516Z,75.69
2019-03-20T09:46:06.949Z,75.39
2019-03-20T09:48:37.083Z,75.16
2019-03-20T09:51:07.242Z,75.05
2019-03-20T09:56:16.065Z,74.85
2019-03-20T09:58:46.311Z,74.88
2019-03-20T10:01:16.530Z,74.92
2019-03-20T10:03:48.942Z,75.00
2019-03-20T10:06:19.111Z,75.10
2019-03-20T10:08:54.028Z,75.08
2019-03-20T10:11:21.447Z,75.09
2019-03-20T10:13:54.932Z,75.17
2019-03-20T10:16:25.248Z,75.27
2019-03-20T10:18:55.470Z,75.26
2019-03-20T10:21:25.669Z,75.36
2019-03-20T10:23:55.952Z,75.35
2019-03-20T10:26:26.118Z,75.43
2019-03-20T10:28:56.247Z,75.46
2019-03-20T10:31:26.375Z,75.46
2019-03-20T10:33:56.625Z,75.61
2019-03-20T10:36:26.935Z,75.79
2019-03-20T10:39:06.018Z,76.01
2019-03-20T10:41:29.464Z,76.26
2019-03-20T10:43:59.788Z,76.39
2019-03-20T10:46:30.521Z,76.55
2019-03-20T10:49:00.798Z,76.65
2019-03-20T10:51:31.052Z,76.70
2019-03-20T10:54:01.380Z,76.73
2019-03-20T10:56:31.721Z,76.80
2019-03-20T10:59:02.015Z,76.89
2019-03-20T11:01:42.063Z,76.78
2019-03-20T11:04:04.632Z,76.79
2019-03-20T11:06:34.969Z,76.85
2019-03-20T11:09:17.630Z,76.84
2019-03-20T11:11:40.291Z,76.87
2019-03-20T11:14:10.638Z,76.96
2019-03-20T11:16:40.960Z,77.04
2019-03-20T11:19:11.214Z,77.15
2019-03-20T11:21:41.424Z,77.22
2019-03-20T11:24:11.784Z,77.33
2019-03-20T11:26:41.990Z,77.30
2019-03-20T11:29:12.149Z,77.25
2019-03-20T11:31:42.470Z,77.21
2019-03-20T11:34:13.043Z,77.23
2019-03-20T11:36:43.460Z,77.21
2019-03-20T11:39:13.768Z,77.23
2019-03-20T11:41:43.984Z,77.28
2019-03-20T11:44:14.417Z,77.35
2019-03-20T11:46:44.741Z,77.36
2019-03-20T11:49:15.136Z,77.43
2019-03-20T11:51:45.389Z,77.50
2019-03-20T11:54:15.877Z,77.55
2019-03-20T11:56:46.070Z,77.61
2019-03-20T11:59:16.356Z,77.68
2019-03-20T12:01:46.580Z,77.73
2019-03-20T12:04:16.735Z,77.81
2019-03-20T12:06:46.883Z,77.88
2019-03-20T12:09:17.080Z,78.07
2019-03-20T12:11:47.183Z,78.41
2019-03-20T12:14:17.473Z,78.65
2019-03-20T12:16:47.752Z,78.81
2019-03-20T12:19:17.908Z,79.20
2019-03-20T12:21:48.242Z,79.40
2019-03-20T12:24:18.329Z,79.42
2019-03-20T12:26:48.665Z,79.45
2019-03-20T12:29:19.048Z,79.51
2019-03-20T12:31:49.354Z,79.60
2019-03-20T12:34:19.491Z,79.62
2019-03-20T12:36:49.802Z,79.68
2019-03-20T12:39:20.110Z,79.66
2019-03-20T12:41:50.350Z,79.67
2019-03-20T12:44:20.634Z,79.69
2019-03-20T12:46:50.904Z,79.73
2019-03-20T12:49:21.059Z,79.70
2019-03-20T12:51:51.373Z,79.66
2019-03-20T12:54:21.622Z,79.57
2019-03-20T12:56:52.235Z,79.52
2019-03-20T12:59:22.542Z,79.40
2019-03-20T13:01:52.828Z,79.34
2019-03-20T13:04:24.948Z,79.27
2019-03-20T13:06:55.285Z,79.15
2019-03-20T13:09:25.567Z,79.17
2019-03-20T13:11:55.850Z,79.22
2019-03-20T13:14:26.181Z,79.35
2019-03-20T13:16:56.572Z,79.32
2019-03-20T13:19:26.978Z,79.21
2019-03-20T13:21:57.316Z,79.12
2019-03-20T13:24:27.584Z,79.09
2019-03-20T13:26:58.109Z,79.13
2019-03-20T13:29:28.456Z,79.09
2019-03-20T13:31:58.693Z,79.05
2019-03-20T13:34:29.051Z,79.02
2019-03-20T13:36:59.345Z,79.01
2019-03-20T13:39:29.683Z,79.10
2019-03-20T13:41:59.817Z,79.17
2019-03-20T13:44:30.634Z,79.11
2019-03-20T13:47:01.102Z,79.04
2019-03-20T13:49:31.557Z,79.00
2019-03-20T13:52:01.796Z,79.01
2019-03-20T13:54:32.029Z,78.89
2019-03-20T13:57:02.304Z,78.86
2019-03-20T13:59:32.460Z,78.86
2019-03-20T14:02:02.795Z,78.84
2019-03-20T14:04:32.992Z,78.82
2019-03-20T14:07:03.101Z,78.74
2019-03-20T14:09:33.326Z,78.71
2019-03-20T14:12:03.959Z,78.71
2019-03-20T14:14:34.256Z,78.61
2019-03-20T14:17:04.701Z,78.57
2019-03-20T14:19:35.011Z,78.47
2019-03-20T14:22:05.291Z,78.50
2019-03-20T14:24:36.115Z,78.45
2019-03-20T14:27:07.105Z,78.39
2019-03-20T14:29:39.882Z,78.36
2019-03-20T14:32:13.377Z,78.37
2019-03-20T14:34:43.727Z,78.37
2019-03-20T14:37:14.092Z,78.37
2019-03-20T14:39:47.639Z,78.33
2019-03-20T14:42:17.950Z,78.26
2019-03-20T14:44:52.729Z,78.22
2019-03-20T14:47:23.014Z,78.22
2019-03-20T14:49:53.326Z,78.18
2019-03-20T14:52:23.636Z,78.16
2019-03-20T14:54:53.874Z,78.11
2019-03-20T14:57:25.850Z,78.05
2019-03-20T14:59:56.079Z,78.03
2019-03-20T15:02:26.394Z,78.04
2019-03-20T15:04:56.771Z,78.01
2019-03-20T15:07:26.881Z,78.00
2019-03-20T15:09:57.118Z,78.00
2019-03-20T15:12:27.462Z,78.00
2019-03-20T15:14:57.649Z,77.81
2019-03-20T15:17:28.122Z,77.82
2019-03-20T15:19:58.310Z,77.82
2019-03-20T15:22:28.440Z,77.78
2019-03-20T15:24:58.772Z,77.80
2019-03-20T15:27:28.957Z,77.80
2019-03-20T15:30:04.337Z,77.77
2019-03-20T15:32:35.738Z,77.70
2019-03-20T15:35:10.360Z,77.66
2019-03-20T15:37:43.184Z,77.53
2019-03-20T15:40:15.703Z,77.47
2019-03-20T15:42:45.956Z,77.36
2019-03-20T15:45:16.773Z,77.28
2019-03-20T15:47:46.975Z,77.24
2019-03-20T15:50:17.875Z,77.25
2019-03-20T15:52:48.177Z,77.35
2019-03-20T15:55:25.197Z,77.40
2019-03-20T15:57:55.473Z,77.42
2019-03-20T16:00:25.786Z,77.42
2019-03-20T16:03:00.082Z,77.38
2019-03-20T16:05:30.229Z,77.34
2019-03-20T16:08:00.356Z,77.33
2019-03-20T16:10:33.695Z,77.29
2019-03-20T16:13:03.885Z,77.23
2019-03-20T16:15:34.306Z,77.21
2019-03-20T16:18:04.815Z,77.14
2019-03-20T16:20:35.326Z,77.10
2019-03-20T16:23:07.100Z,77.05
2019-03-20T16:25:37.524Z,77.00
2019-03-20T16:28:08.140Z,76.96
2019-03-20T16:30:38.643Z,76.88
2019-03-20T16:33:09.083Z,76.84
2019-03-20T16:35:39.604Z,76.77
2019-03-20T16:38:10.356Z,76.67
2019-03-20T16:40:40.803Z,76.56
2019-03-20T16:43:11.199Z,76.50
2019-03-20T16:45:41.713Z,76.44
2019-03-20T16:48:12.145Z,76.45
2019-03-20T16:51:11.402Z,76.47
2019-03-20T16:53:41.333Z,76.54
2019-03-20T16:56:11.581Z,76.59
2019-03-20T16:58:41.714Z,76.64
2019-03-20T17:01:11.944Z,76.71
2019-03-20T17:03:42.076Z,76.75
2019-03-20T17:06:12.355Z,76.79
2019-03-20T17:08:42.512Z,76.76
2019-03-20T17:11:12.697Z,76.73
2019-03-20T17:13:43.008Z,76.72
2019-03-20T17:16:13.235Z,76.76
2019-03-20T17:18:43.405Z,76.76
2019-03-20T17:21:13.944Z,76.79
2019-03-20T17:23:44.436Z,76.84
2019-03-20T17:26:15.040Z,76.83
2019-03-20T17:28:45.423Z,76.81
2019-03-20T17:31:15.870Z,76.81
2019-03-20T17:33:46.399Z,76.82
2019-03-20T17:36:18.425Z,76.79
2019-03-20T17:38:48.861Z,76.79
2019-03-20T17:41:43.132Z,76.79
2019-03-20T17:44:13.643Z,76.86
2019-03-20T17:46:43.915Z,76.94
2019-03-20T17:49:13.962Z,76.96
2019-03-20T17:51:44.032Z,77.01
2019-03-20T17:54:14.192Z,77.10
2019-03-20T17:56:44.253Z,77.21
2019-03-20T17:59:14.396Z,77.28
2019-03-20T18:01:44.533Z,77.38
2019-03-20T18:04:14.618Z,77.50
2019-03-20T18:06:44.768Z,77.57
2019-03-20T18:09:15.023Z,77.63
2019-03-20T18:11:47.776Z,77.71
2019-03-20T18:14:17.113Z,77.72
2019-03-20T18:16:47.302Z,77.78
2019-03-20T18:19:17.443Z,77.85
2019-03-20T18:21:47.666Z,77.88
2019-03-20T18:24:17.738Z,77.93
2019-03-20T18:26:47.878Z,77.94
2019-03-20T18:29:18.055Z,77.93
2019-03-20T18:31:48.382Z,77.94
2019-03-20T18:34:18.646Z,77.92
2019-03-20T18:36:49.382Z,77.94
2019-03-20T18:39:20.640Z,77.97
2019-03-20T18:41:57.806Z,77.97
2019-03-20T18:44:22.850Z,77.99
2019-03-20T18:46:53.097Z,78.08
2019-03-20T18:49:23.304Z,78.20
2019-03-20T18:51:53.515Z,78.27
2019-03-20T18:54:23.748Z,78.33
2019-03-20T18:56:53.798Z,78.43
2019-03-20T18:59:23.947Z,78.53
2019-03-20T19:01:54.098Z,78.69
2019-03-20T19:04:26.090Z,78.88
2019-03-20T19:06:56.220Z,79.05
2019-03-20T19:09:26.375Z,79.24
2019-03-20T19:11:56.563Z,79.40
2019-03-20T19:14:26.624Z,79.56
2019-03-20T19:16:56.901Z,79.71
2019-03-20T19:19:27.067Z,79.82
2019-03-20T19:21:57.291Z,79.92
2019-03-20T19:24:27.497Z,80.02
2019-03-20T19:26:57.669Z,80.11
2019-03-20T19:29:27.959Z,80.31
2019-03-20T19:31:58.203Z,80.53
2019-03-20T19:34:28.441Z,80.74
2019-03-20T19:36:58.748Z,80.89
2019-03-20T19:39:29.192Z,80.96
2019-03-20T19:41:59.351Z,81.05
2019-03-20T19:44:31.539Z,81.12
2019-03-20T19:47:01.863Z,81.24
2019-03-20T19:49:32.134Z,81.40
2019-03-20T19:52:02.255Z,81.54
2019-03-20T19:54:32.506Z,82.56
2019-03-20T19:57:02.909Z,82.61
2019-03-20T19:59:33.009Z,82.63
2019-03-20T20:02:03.157Z,82.63
2019-03-20T20:04:33.295Z,82.66
2019-03-20T20:07:03.451Z,82.68
2019-03-20T20:09:33.518Z,82.74
2019-03-20T20:12:03.623Z,82.81
2019-03-20T20:14:33.709Z,82.81
2019-03-20T20:17:03.820Z,82.97
2019-03-20T20:19:34.355Z,83.02
2019-03-20T20:22:05.316Z,83.00
2019-03-20T20:24:36.017Z,83.00
2019-03-20T20:27:09.724Z,83.06
2019-03-20T20:29:40.209Z,83.18
2019-03-20T20:34:38.583Z,83.19
2019-03-20T20:37:09.214Z,83.22
2019-03-20T20:39:40.302Z,83.23
2019-03-20T20:42:10.881Z,83.28
2019-03-20T20:44:41.535Z,83.34
2019-03-20T20:47:12.559Z,83.36
2019-03-20T20:49:43.391Z,83.41
2019-03-20T20:52:19.448Z,83.49
2019-03-20T20:57:17.053Z,83.51
2019-03-20T20:59:53.516Z,83.54
2019-03-20T21:02:24.099Z,83.54
2019-03-20T21:04:54.644Z,83.58
2019-03-20T21:07:26.620Z,83.61
2019-03-20T21:09:57.179Z,83.58
2019-03-20T21:12:27.641Z,83.46
2019-03-20T21:14:58.403Z,83.41
2019-03-20T21:18:56.396Z,83.38
2019-03-20T21:21:40.124Z,83.35
2019-03-20T21:24:27.842Z,83.34
2019-03-20T21:28:03.093Z,83.26
2019-03-20T21:31:13.229Z,83.28
2019-03-20T21:34:58.991Z,83.22
2019-03-20T21:38:09.515Z,83.16
2019-03-20T21:41:24.399Z,83.22
2019-03-20T21:44:34.479Z,83.29
2019-03-20T21:47:33.243Z,83.35
2019-03-20T21:51:20.529Z,83.47
2019-03-20T21:54:59.138Z,83.54
2019-03-20T21:58:12.089Z,83.65
2019-03-20T22:01:48.950Z,83.72
2019-03-20T22:04:20.204Z,83.64
2019-03-20T22:07:10.975Z,83.60
2019-03-20T22:10:39.256Z,83.56
2019-03-20T22:13:19.719Z,83.62
2019-03-20T22:16:26.631Z,83.79
2019-03-20T22:19:41.553Z,83.81
2019-03-20T22:23:31.279Z,83.87
2019-03-20T22:27:21.774Z,83.91
2019-03-20T22:29:52.679Z,83.96
2019-03-20T22:33:23.804Z,84.14
2019-03-20T22:36:19.971Z,84.11
2019-03-20T22:40:07.828Z,84.19
2019-03-20T22:43:04.254Z,84.28
2019-03-20T22:46:31.655Z,84.34
2019-03-20T22:50:26.783Z,84.34
2019-03-20T22:53:52.043Z,84.56
2019-03-20T22:57:33.502Z,84.51
2019-03-20T23:00:05.441Z,84.56
2019-03-20T23:03:02.651Z,84.55
2019-03-20T23:05:33.800Z,84.53
2019-03-20T23:08:13.394Z,84.56
2019-03-20T23:10:45.101Z,84.50
2019-03-20T23:13:19.201Z,84.49
2019-03-20T23:15:49.169Z,84.60
2019-03-20T23:18:20.408Z,84.64
2019-03-20T23:20:51.536Z,84.68
2019-03-20T23:23:22.541Z,84.63
2019-03-20T23:25:53.478Z,84.54
2019-03-20T23:28:25.246Z,84.51
2019-03-20T23:30:56.343Z,84.47
2019-03-20T23:33:27.369Z,84.43
2019-03-20T23:35:58.542Z,84.37
2019-03-20T23:38:29.626Z,84.31
2019-03-20T23:41:00.603Z,84.29
2019-03-20T23:43:31.476Z,84.30
2019-03-20T23:46:02.594Z,84.27
2019-03-20T23:49:00.048Z,84.22
2019-03-20T23:51:31.082Z,84.18
2019-03-20T23:54:02.122Z,84.12
2019-03-20T23:56:34.992Z,84.05
2019-03-20T23:59:06.743Z,84.04
